Latest Weather Observations for Wilcannia Airport

IDN60801

Issued at 5:42 am EST Wednesday 18 September 2019 (issued every 10 minutes, with the page automatically refreshed every 10 minutes)

About weather observations | Map of weather stations | Latest weather observations for NSW | Other Formats
Station Details ID: 046012 Name: WILCANNIA AERODROME AWS Lat: -31.52 Lon: 143.38 Height: 94.3 m
Data from the previous 72 hours. | See also: Recent months at Wilcannia Airport
Date/Time
EST
Temp
°C
App
Temp
°C
Dew
Point
°C
Rel
Hum
%
Delta-T
°C
Wind Press
QNH
hPa
Press
MSL
hPa
Rain since
9am
mm
Dir  Spd
km/h
Gust
km/h
Spd
kts
Gust
kts
18/05:30am 3.4 -0.9 -1.7 69 1.8 WSW 11 13 6 7 1025.2 1025.1 0.0
18/05:00am 3.3 -0.3 -1.8 69 1.8 SSW 7 9 4 5 1025.0 1024.9 0.0
18/04:30am 3.9 -0.3 -0.9 71 1.8 S 11 13 6 7 1024.7 1024.6 0.0
18/04:00am 4.2 0.4 -0.8 70 1.8 S 9 11 5 6 1024.7 1024.6 0.0
18/03:30am 5.0 1.2 -0.6 67 2.1 SSW 9 11 5 6 1024.8 1024.7 0.0
18/03:00am 5.4 1.7 0.0 68 2.1 S 9 11 5 6 1024.9 1024.8 0.0
18/02:30am 6.5 2.1 0.6 66 2.3 S 13 13 7 7 1024.9 1024.8 0.0
18/02:00am 7.2 3.3 0.9 64 2.5 S 11 13 6 7 1025.3 1025.2 0.0
18/01:30am 7.8 3.9 1.0 62 2.7 S 11 13 6 7 1025.4 1025.3 0.0
18/01:00am 8.6 4.4 1.5 61 2.9 S 13 15 7 8 1025.6 1025.5 0.0
18/12:30am 7.4 3.4 0.6 62 2.7 S 11 13 6 7 1025.6 1025.5 0.0
18/12:00am 7.0 2.9 -0.2 60 2.8 SSW 11 13 6 7 1025.8 1025.7 0.0
 
Date/Time
EST
Temp
°C
App
Temp
°C
Dew
Point
°C
Rel
Hum
%
Delta-T
°C
Wind Press
QNH
hPa
Press
MSL
hPa
Rain since
9am
mm
Dir  Spd
km/h
Gust
km/h
Spd
kts
Gust
kts
17/11:30pm 7.3 3.1 -0.9 56 3.1 SSW 11 13 6 7 1025.9 1025.8 0.0
17/11:00pm 9.0 5.4 0.5 55 3.4 S 9 11 5 6 1026.2 1026.1 0.0
17/10:30pm 10.5 6.5 0.8 51 4.0 S 11 15 6 8 1026.2 1026.1 0.0
17/10:00pm 9.2 5.3 1.1 57 3.3 S 11 17 6 9 1026.1 1026.0 0.0
17/09:30pm 9.0 4.8 -0.6 51 3.8 SSW 11 13 6 7 1025.9 1025.8 0.0
17/09:00pm 9.5 4.9 -0.7 49 4.0 SSW 13 13 7 7 1025.7 1025.6 0.0
17/08:30pm 10.3 5.8 -0.2 48 4.2 SSW 13 15 7 8 1025.6 1025.5 0.0
17/08:00pm 11.2 7.1 -0.3 45 4.6 SSW 11 13 6 7 1025.4 1025.3 0.0
17/07:30pm 12.5 8.4 -0.4 41 5.3 S 11 13 6 7 1024.9 1024.8 0.0
17/07:00pm 13.8 9.3 -0.6 37 5.9 S 13 19 7 10 1024.4 1024.2 0.0
17/06:30pm 14.5 9.6 -0.8 35 6.3 S 15 22 8 12 1024.1 1023.9 0.0
17/06:00pm 15.5 9.2 -1.1 32 6.9 SSE 22 28 12 15 1023.5 1023.4 0.0
17/05:30pm 16.1 10.1 -1.9 29 7.4 SSE 20 32 11 17 1023.3 1023.2 0.0
17/05:00pm 16.5 10.1 -2.0 28 7.6 SSE 22 33 12 18 1023.1 1023.0 0.0
17/04:30pm 16.5 8.9 -2.5 27 7.8 S 28 39 15 21 1022.8 1022.7 0.0
17/04:00pm 16.9 9.5 -3.8 24 8.2 SSE 26 39 14 21 1022.5 1022.4 0.0
17/03:30pm 17.0 9.9 -4.3 23 8.4 SSE 24 33 13 18 1022.5 1022.4 0.0
17/03:00pm 16.7 8.8 -4.5 23 8.3 S 28 39 15 21 1022.5 1022.4 0.0
17/02:30pm 17.3 10.3 -3.4 24 8.4 SSE 24 35 13 19 1022.7 1022.6 0.0
17/02:00pm 15.4 8.2 -5.6 23 7.9 S 24 39 13 21 1023.0 1022.9 0.0
17/01:30pm 14.6 7.1 -4.7 26 7.4 S 26 39 14 21 1023.3 1023.2 0.0
17/01:00pm 14.5 6.6 -4.7 26 7.3 S 28 43 15 23 1023.4 1023.3 0.0
17/12:30pm 13.7 6.6 -4.5 28 6.9 S 24 39 13 21 1023.7 1023.6 0.0
17/12:00pm 13.2 5.0 -4.4 29 6.6 S 30 43 16 23 1024.1 1023.9 0.0
17/11:30am 13.1 4.2 -5.0 28 6.7 S 33 46 18 25 1024.3 1024.1 0.0
17/11:15am 12.8 4.1 -5.2 28 6.6 S 32 50 17 27 1024.5 1024.4 0.0
17/11:00am 12.2 3.4 -6.2 27 6.6 S 32 44 17 24 1024.8 1024.7 0.0
17/10:39am 11.8 3.4 -6.1 28 6.4 S 30 48 16 26 1025.0 1024.9 0.0
17/10:30am 12.0 4.2 -3.4 34 5.9 S 28 41 15 22 1025.0 1024.9 0.0
17/10:00am 11.0 2.9 -3.1 37 5.3 S 30 43 16 23 1025.2 1025.1 0.0
17/09:30am 10.0 1.6 -2.6 41 4.8 S 32 44 17 24 1025.2 1025.1 0.0
17/09:00am 9.2 1.7 -1.2 48 4.0 S 28 39 15 21 1025.2 1025.1 0.4
17/08:30am 8.6 2.1 0.1 55 3.4 S 24 33 13 18 1025.1 1025.0 0.4
17/08:00am 7.6 0.8 0.8 62 2.7 S 26 32 14 17 1024.8 1024.7 0.4
17/07:30am 6.7 0.3 1.0 67 2.3 S 24 32 13 17 1024.4 1024.2 0.4
17/07:00am 6.0 0.4 1.2 71 1.9 S 20 30 11 16 1024.4 1024.2 0.4
17/06:30am 5.7 0.1 1.4 74 1.7 S 20 26 11 14 1023.8 1023.7 0.4
17/06:00am 6.1 0.6 1.8 74 1.7 S 20 28 11 15 1023.3 1023.2 0.4
17/05:30am 6.5 1.3 2.6 76 1.6 S 19 28 10 15 1022.9 1022.8 0.4
17/05:00am 6.7 2.0 3.3 79 1.4 S 17 24 9 13 1022.3 1022.2 0.4
17/04:30am 7.3 2.2 3.9 79 1.5 S 20 28 11 15 1021.9 1021.8 0.4
17/04:00am 7.8 2.8 4.6 80 1.4 S 20 28 11 15 1021.7 1021.6 0.4
17/03:30am 8.2 2.6 5.5 83 1.2 S 24 35 13 19 1021.6 1021.5 0.4
17/03:00am 8.6 2.3 5.9 83 1.2 S 28 39 15 21 1021.5 1021.4 0.4
17/02:30am 9.0 3.2 6.4 84 1.2 S 26 41 14 22 1021.5 1021.4 0.4
17/02:00am 9.1 3.5 7.1 87 0.9 S 26 39 14 21 1021.4 1021.3 0.4
17/01:30am 8.7 3.4 7.0 89 0.8 S 24 39 13 21 1021.2 1021.1 0.4
17/01:00am 9.6 2.5 5.4 75 1.9 S 32 50 17 27 1021.2 1021.1 0.0
17/12:59am 9.7 2.9 5.3 74 2.0 S 30 48 16 26 1021.2 1021.1 0.0
17/12:30am 10.2 3.1 5.4 72 2.2 S 32 43 17 23 1020.6 1020.5 0.0
17/12:00am 10.7 3.9 5.3 69 2.5 S 30 39 16 21 1020.6 1020.5 0.0
 
Date/Time
EST
Temp
°C
App
Temp
°C
Dew
Point
°C
Rel
Hum
%
Delta-T
°C
Wind Press
QNH
hPa
Press
MSL
hPa
Rain since
9am
mm
Dir  Spd
km/h
Gust
km/h
Spd
kts
Gust
kts
16/11:30pm 11.3 5.0 5.6 68 2.6 S 28 43 15 23 1020.9 1020.8 0.0
16/11:00pm 12.0 4.7 5.6 65 3.0 S 33 46 18 25 1021.2 1021.1 0.0
16/10:31pm 13.0 5.7 5.4 60 3.6 S 33 52 18 28 1021.1 1021.0 0.0
16/10:30pm 13.1 6.0 5.3 59 3.7 S 32 44 17 24 1021.0 1020.9 0.0
16/10:00pm 14.0 6.8 5.1 55 4.2 S 32 48 17 26 1019.6 1019.5 0.0
16/09:41pm 15.1 7.9 5.0 51 4.8 S 32 50 17 27 1019.8 1019.7 0.0
16/09:30pm 15.5 8.3 5.1 50 4.9 S 32 46 17 25 1019.5 1019.4 0.0
16/09:19pm 16.0 9.1 4.7 47 5.3 S 30 48 16 26 1019.8 1019.7 0.0
16/09:00pm 16.6 10.1 4.6 45 5.7 S 28 37 15 20 1019.5 1019.4 0.0
16/08:30pm 17.1 11.3 4.4 43 6.0 S 24 33 13 18 1019.1 1019.0 0.0
16/08:00pm 17.4 10.1 4.4 42 6.2 S 32 46 17 25 1019.0 1018.9 0.0
16/07:32pm 17.9 10.3 4.1 40 6.5 S 33 52 18 28 1018.3 1018.2 0.0
16/07:30pm 17.9 10.3 4.1 40 6.5 S 33 50 18 27 1018.3 1018.2 0.0
16/07:00pm 18.8 11.1 3.4 36 7.2 S 33 52 18 28 1018.0 1017.9 0.0
16/06:36pm 20.4 13.6 6.7 41 7.0 S 32 50 17 27 1017.4 1017.3 0.0
16/06:30pm 20.6 14.9 6.9 41 7.0 S 26 41 14 22 1017.4 1017.3 0.0
16/06:20pm 20.9 13.9 6.8 40 7.2 S 33 52 18 28 1017.5 1017.4 0.0
16/06:00pm 21.4 14.4 6.9 39 7.4 S 33 44 18 24 1017.0 1016.9 0.0
16/05:30pm 22.1 15.1 5.9 35 8.2 S 32 43 17 23 1016.4 1016.3 0.0
16/05:00pm 23.0 16.0 5.9 33 8.7 SSW 32 43 17 23 1016.0 1015.9 0.0
16/04:30pm 23.9 17.6 5.8 31 9.2 S 28 39 15 21 1015.4 1015.2 0.0
16/04:00pm 24.6 17.5 5.4 29 9.8 S 32 41 17 22 1015.1 1014.9 0.0
16/03:30pm 26.2 18.6 4.1 24 11.1 SSW 33 44 18 24 1015.1 1014.9 0.0
16/03:00pm 27.0 19.3 -0.1 17 12.7 SSW 30 39 16 21 1015.0 1014.8 0.0
16/02:30pm 26.4 18.3 -3.2 14 13.0 SW 30 41 16 22 1015.4 1015.2 0.0
16/02:00pm 26.4 18.4 -2.3 15 12.8 SW 30 41 16 22 1015.4 1015.2 0.0
16/01:30pm 28.9 21.3 -2.3 13 14.3 SW 28 41 15 22 1015.3 1015.1 0.0
16/01:00pm 29.0 21.5 -4.4 11 14.7 SW 26 35 14 19 1015.5 1015.4 0.0
16/12:30pm 29.5 22.3 -5.3 10 15.2 SW 24 39 13 21 1015.6 1015.5 0.0
16/12:00pm 29.7 22.1 -5.1 10 15.2 SW 26 39 14 21 1015.8 1015.7 0.0
16/11:32am 30.2 21.4 -6.1 9 15.7 WNW 32 54 17 29 1015.8 1015.7 0.0
16/11:30am 30.8 22.0 -5.7 9 16.0 WNW 32 46 17 25 1015.7 1015.6 0.0
16/11:00am 30.5 23.2 -5.9 9 15.8 NW 24 35 13 19 1016.2 1016.1 0.0
16/10:30am 28.9 22.4 -5.7 10 14.9 NNW 20 28 11 15 1016.5 1016.4 0.0
16/10:00am 27.8 20.9 -6.6 10 14.4 NW 22 28 12 15 1016.9 1016.8 0.0
16/09:30am 25.7 18.7 -6.9 11 13.3 NW 22 30 12 16 1017.2 1017.1 0.0
16/09:00am 24.3 17.3 -6.9 12 12.6 NW 22 30 12 16 1017.2 1017.1 0.0
16/08:30am 23.1 16.7 -6.8 13 11.9 NW 19 26 10 14 1017.2 1017.1 0.0
16/08:00am 20.7 14.2 -7.7 14 10.9 NNW 19 26 10 14 1016.8 1016.7 0.0
16/07:30am 18.1 11.5 -8.9 15 9.8 NNW 19 24 10 13 1016.4 1016.3 0.0
16/07:00am 17.1 10.5 -8.9 16 9.3 NNW 19 24 10 13 1016.4 1016.3 0.0
16/06:30am 17.2 11.0 -8.8 16 9.4 NNW 17 22 9 12 1016.2 1016.1 0.0
16/06:00am 16.9 11.1 -9.0 16 9.2 NNW 15 19 8 10 1016.2 1016.1 0.0
16/05:30am 16.9 11.1 -9.0 16 9.2 NNW 15 17 8 9 1015.9 1015.8 0.0
16/05:00am 18.2 11.4 -8.8 15 9.8 N 20 26 11 14 1015.3 1015.1 0.0
16/04:30am 17.0 10.4 -9.0 16 9.3 N 19 22 10 12 1015.5 1015.4 0.0
16/04:00am 16.9 10.7 -9.0 16 9.2 NNW 17 19 9 10 1015.8 1015.7 0.0
16/03:30am 17.9 11.7 -9.1 15 9.7 NNW 17 20 9 11 1016.0 1015.9 0.0
16/03:00am 17.8 11.6 -9.1 15 9.7 NNW 17 20 9 11 1016.3 1016.2 0.0
16/02:30am 17.7 11.1 -9.2 15 9.7 N 19 20 10 11 1016.7 1016.6 0.0
16/02:00am 17.3 11.1 -9.5 15 9.5 NNW 17 19 9 10 1017.2 1017.1 0.0
16/01:30am 17.5 11.3 -9.4 15 9.6 NNW 17 19 9 10 1017.6 1017.5 0.0
16/01:00am 17.8 11.6 -9.1 15 9.7 NNW 17 19 9 10 1018.0 1017.9 0.0
16/12:30am 18.0 11.8 -9.0 15 9.8 NNW 17 17 9 9 1018.2 1018.1 0.0
16/12:00am 19.0 12.8 -9.1 14 10.2 NNW 17 19 9 10 1018.5 1018.4 0.0
 
Date/Time
EST
Temp
°C
App
Temp
°C
Dew
Point
°C
Rel
Hum
%
Delta-T
°C
Wind Press
QNH
hPa
Press
MSL
hPa
Rain since
9am
mm
Dir  Spd
km/h
Gust
km/h
Spd
kts
Gust
kts
15/11:30pm 18.3 12.4 -9.6 14 10.0 NNW 15 17 8 9 1018.6 1018.5 0.0
15/11:00pm 20.1 14.3 -9.1 13 10.8 NNW 15 17 8 9 1018.6 1018.5 0.0
15/10:30pm 20.4 14.6 -8.9 13 10.9 N 15 17 8 9 1018.7 1018.6 0.0
15/10:00pm 20.3 14.5 -9.0 13 10.8 NNW 15 17 8 9 1018.9 1018.8 0.0
15/09:30pm 20.3 14.4 -10.0 12 11.0 NNW 15 15 8 8 1019.1 1019.0 0.0
15/09:00pm 20.8 14.9 -9.6 12 11.2 N 15 17 8 9 1018.9 1018.8 0.0
15/08:30pm 21.3 15.4 -10.3 11 11.6 N 15 15 8 8 1019.1 1019.0 0.0
15/08:00pm 21.9 16.0 -9.9 11 11.8 N 15 15 8 8 1018.9 1018.8 0.0
15/07:30pm 22.6 16.7 -10.5 10 12.2 N 15 17 8 9 1018.6 1018.5 0.0
15/07:00pm 23.1 17.2 -10.1 10 12.4 N 15 17 8 9 1018.5 1018.4 0.0
15/06:30pm 24.1 18.5 -10.7 9 13.0 NNW 13 15 7 8 1018.6 1018.5 0.0
15/06:00pm 27.7 21.3 -11.2 7 15.0 NW 17 20 9 11 1018.5 1018.4 0.0
15/05:30pm 29.5 23.2 -9.9 7 15.8 NW 17 24 9 13 1018.5 1018.4 0.0
15/05:00pm 30.0 22.8 -9.5 7 16.0 NNW 22 30 12 16 1018.4 1018.3 0.0
15/04:30pm 30.9 24.7 -8.9 7 16.5 WNW 17 22 9 12 1018.6 1018.5 0.0
15/04:00pm 30.8 25.4 -8.9 7 16.4 NNW 13 20 7 11 1018.6 1018.5 0.0
15/03:30pm 30.9 24.7 -8.9 7 16.5 N 17 28 9 15 1018.6 1018.5 0.0
15/03:00pm 31.0 24.2 -8.8 7 16.5 NNW 20 30 11 16 1018.9 1018.8 0.0
15/02:30pm 31.0 24.8 -8.8 7 16.5 NNW 17 26 9 14 1019.2 1019.1 0.0
15/02:00pm 30.4 24.3 -7.5 8 16.0 N 17 28 9 15 1019.6 1019.5 0.0
15/01:30pm 30.5 24.4 -7.4 8 16.0 NNW 17 26 9 14 1020.1 1020.0 0.0
15/01:00pm 29.3 23.3 -6.8 9 15.2 NNW 17 26 9 14 1020.6 1020.5 0.0
15/12:30pm 28.4 21.9 -6.1 10 14.7 N 20 33 11 18 1021.0 1020.9 0.0
15/12:00pm 28.5 22.1 -4.8 11 14.5 N 20 30 11 16 1021.5 1021.4 0.0
15/11:30am 27.1 20.0 -4.7 12 13.7 NNE 24 37 13 20 1022.0 1021.9 0.0
15/11:00am 26.1 19.4 -4.4 13 13.1 N 22 30 12 16 1022.6 1022.5 0.0
15/10:30am 25.3 18.5 -5.1 13 12.8 NNE 22 30 12 16 1023.1 1023.0 0.0
15/10:00am 24.6 18.4 -4.6 14 12.3 NNE 19 28 10 15 1023.4 1023.3 0.0
15/09:30am 23.2 17.4 -4.8 15 11.6 NNE 17 24 9 13 1023.7 1023.6 0.0
15/09:00am 21.9 16.3 -5.9 15 11.1 NNE 15 20 8 11 1024.2 1024.0 0.0
15/08:30am 19.9 13.6 -5.8 17 10.1 NE 19 26 10 14 1024.0 1023.8 0.0
15/08:00am 18.2 12.0 -4.5 21 9.0 NNE 19 26 10 14 1023.8 1023.7 0.0
15/07:30am 15.3 10.3 -4.6 25 7.7 NE 13 17 7 9 1023.7 1023.6 0.0
15/07:00am 12.5 6.8 -4.1 31 6.2 NE 17 17 9 9 1023.3 1023.2 0.0
15/06:30am 10.8 4.6 -4.4 34 5.6 NNE 19 20 10 11 1023.1 1023.0 0.0
15/06:00am 11.2 5.5 -3.7 35 5.6 NE 17 17 9 9 1023.0 1022.9 0.0

Other formats

Comma delimited format used in spreadsheet applications
http://www.bom.gov.au/fwo/IDN60801/IDN60801.95695.axf

JavaScript Object Notation format (JSON) in row-major order
http://www.bom.gov.au/fwo/IDN60801/IDN60801.95695.json

Data quality

Most of these data are generated automatically and are frequently updated. Quality checks on data are not normally performed. It is possible for incorrect values to appear. Refer to information at About Latest Weather Observations and please check the disclaimer before using these data.